Time;durP1;ratioP1;P1;durP2;ratioP2;P2;SDS_P1;SDS_P2;PMS_P1;PMS_P2;Temp;Humidity;BMP_temperature;BMP_pressure;BME280_temperature;BME280_humidity;BME280_pressure;Samples;Min_cycle;Max_cycle;Signal;HPM_P1;HPM_P2
2022/10/29 00:00:04;;;;;;;12.00;4.40;;;18.70;99.90;;;;;;5094145;28;20548;-69
2022/10/29 00:02:31;;;;;;;16.00;4.23;;;18.70;99.90;;;;;;5094449;28;20845;-69
2022/10/29 00:04:57;;;;;;;10.87;5.00;;;18.70;99.90;;;;;;5094003;28;20564;-69
2022/10/29 00:07:24;;;;;;;11.13;4.53;;;18.80;99.90;;;;;;5094146;28;20917;-68
2022/10/29 00:09:51;;;;;;;14.17;4.57;;;18.80;99.90;;;;;;5094488;28;20755;-69
2022/10/29 00:12:18;;;;;;;10.30;4.63;;;18.80;99.90;;;;;;5094353;28;20467;-69
2022/10/29 00:14:46;;;;;;;16.03;4.93;;;18.80;99.90;;;;;;5094035;28;20527;-68
2022/10/29 00:17:14;;;;;;;9.93;4.30;;;18.70;99.90;;;;;;5094221;28;20453;-69
2022/10/29 00:19:41;;;;;;;8.00;4.33;;;18.70;99.90;;;;;;5094226;28;20453;-68
2022/10/29 00:22:08;;;;;;;12.23;4.30;;;18.70;99.90;;;;;;5097389;28;20909;-68
2022/10/29 00:24:35;;;;;;;8.10;3.87;;;18.70;99.90;;;;;;5098962;28;20473;-69
2022/10/29 00:27:01;;;;;;;9.43;4.37;;;18.70;99.90;;;;;;5099275;28;20445;-68
2022/10/29 00:29:28;;;;;;;6.50;3.80;;;18.60;99.90;;;;;;5099172;28;20540;-67
2022/10/29 00:31:56;;;;;;;10.73;4.80;;;18.60;99.90;;;;;;5098160;28;20453;-68
2022/10/29 00:34:23;;;;;;;14.80;4.80;;;18.60;99.90;;;;;;5098234;28;20459;-68
2022/10/29 00:36:50;;;;;;;10.73;4.80;;;18.60;99.90;;;;;;5098433;28;20456;-68
2022/10/29 00:39:17;;;;;;;13.13;4.70;;;18.50;99.90;;;;;;5098130;28;20932;-68
2022/10/29 00:41:44;;;;;;;12.20;4.97;;;18.50;99.90;;;;;;5097558;28;20465;-68
2022/10/29 00:44:28;;;;;;;12.20;5.03;;;18.50;99.90;;;;;;5098448;28;20572;-68
2022/10/29 00:47:02;;;;;;;10.60;4.23;;;18.40;99.90;;;;;;5098151;28;20442;-69
2022/10/29 00:49:31;;;;;;;13.27;5.00;;;18.40;99.90;;;;;;5098378;28;20445;-68
2022/10/29 00:52:00;;;;;;;13.40;4.77;;;18.40;99.90;;;;;;5098320;28;20790;-68
2022/10/29 00:54:29;;;;;;;8.60;4.57;;;18.40;99.90;;;;;;5097655;28;20461;-67
2022/10/29 00:56:59;;;;;;;10.77;4.77;;;18.30;99.90;;;;;;5097456;28;20488;-68
2022/10/29 00:59:26;;;;;;;9.63;4.83;;;18.30;99.90;;;;;;5098293;28;20463;-68
2022/10/29 01:01:54;;;;;;;11.40;4.83;;;18.30;99.90;;;;;;5097417;28;20457;-68
2022/10/29 01:04:24;;;;;;;8.40;4.63;;;18.30;99.90;;;;;;5097050;28;20476;-70
2022/10/29 01:06:51;;;;;;;10.07;5.13;;;18.20;99.90;;;;;;5097389;28;20461;-68
2022/10/29 01:09:18;;;;;;;20.00;5.00;;;18.20;99.90;;;;;;5097555;28;20790;-68
2022/10/29 01:12:02;;;;;;;7.90;3.93;;;18.20;99.90;;;;;;5097052;28;20464;-68
2022/10/29 01:14:38;;;;;;;7.87;4.33;;;18.20;99.90;;;;;;5097347;28;20448;-67
2022/10/29 01:17:14;;;;;;;13.80;4.87;;;18.10;99.90;;;;;;5097277;28;20750;-69
2022/10/29 01:20:30;;;;;;;11.23;4.70;;;18.10;99.90;;;;;;5097252;28;20451;-69
2022/10/29 01:23:11;;;;;;;18.37;5.00;;;18.10;99.90;;;;;;5022470;28;20453;-67
2022/10/29 01:26:12;;;;;;;11.23;4.77;;;18.10;99.90;;;;;;5097186;28;20570;-68
2022/10/29 01:29:03;;;;;;;11.07;5.83;;;18.00;99.90;;;;;;5096948;28;20484;-67
2022/10/29 01:31:35;;;;;;;13.33;5.93;;;18.00;99.90;;;;;;5096777;28;20927;-68
2022/10/29 01:34:11;;;;;;;9.90;5.40;;;18.00;99.90;;;;;;5096414;28;20441;-67
2022/10/29 01:36:43;;;;;;;9.93;5.27;;;17.90;99.90;;;;;;5096938;28;20442;-67
2022/10/29 01:39:18;;;;;;;10.33;4.87;;;17.90;99.90;;;;;;5096535;28;20438;-66
2022/10/29 01:41:53;;;;;;;11.90;5.70;;;17.80;99.90;;;;;;5096454;28;20450;-66
2022/10/29 01:44:29;;;;;;;14.10;5.70;;;17.80;99.90;;;;;;5096371;28;21003;-67
2022/10/29 01:47:00;;;;;;;17.03;5.80;;;17.80;99.90;;;;;;5096566;28;20437;-67
2022/10/29 01:49:32;;;;;;;20.40;6.23;;;17.80;99.90;;;;;;5096662;28;20452;-65
2022/10/29 01:52:01;;;;;;;17.03;5.70;;;17.70;99.90;;;;;;5096620;28;20454;-68
2022/10/29 01:54:28;;;;;;;11.80;5.60;;;17.70;99.90;;;;;;5096440;28;20449;-67
2022/10/29 01:56:56;;;;;;;11.87;5.20;;;17.60;99.90;;;;;;5096535;28;20792;-67
2022/10/29 01:59:26;;;;;;;12.90;5.10;;;17.60;99.90;;;;;;5096741;28;20866;-68
2022/10/29 02:02:08;;;;;;;11.83;5.47;;;17.60;99.90;;;;;;5097017;28;20453;-68
2022/10/29 02:04:54;;;;;;;11.10;5.70;;;17.60;99.90;;;;;;5096356;28;20468;-68
2022/10/29 02:07:31;;;;;;;12.80;5.27;;;17.60;99.90;;;;;;5097018;28;20433;-67
2022/10/29 02:10:07;;;;;;;11.97;5.80;;;17.50;99.90;;;;;;5096950;28;20437;-67
2022/10/29 02:12:38;;;;;;;16.80;6.47;;;17.60;99.90;;;;;;5096747;28;20433;-67
2022/10/29 02:15:09;;;;;;;11.50;6.00;;;17.50;99.90;;;;;;5097167;28;20444;-67
2022/10/29 02:17:37;;;;;;;14.17;5.70;;;17.50;99.90;;;;;;5097305;28;20543;-67
2022/10/29 02:20:06;;;;;;;10.90;5.60;;;17.50;99.90;;;;;;5096731;28;20457;-67
2022/10/29 02:22:33;;;;;;;9.93;6.20;;;17.50;99.90;;;;;;5096451;28;20450;-67
2022/10/29 02:25:01;;;;;;;11.07;5.20;;;17.50;99.90;;;;;;5096986;28;20580;-67
2022/10/29 02:27:27;;;;;;;10.17;5.50;;;17.40;99.90;;;;;;5096639;28;20914;-67
2022/10/29 02:29:54;;;;;;;12.50;5.73;;;17.40;99.90;;;;;;5096287;28;20442;-67
2022/10/29 02:32:21;;;;;;;15.17;6.30;;;17.40;99.90;;;;;;5096874;28;20921;-67
2022/10/29 02:34:49;;;;;;;12.23;6.00;;;17.40;99.90;;;;;;5096608;28;20532;-68
2022/10/29 02:37:16;;;;;;;14.03;6.03;;;17.30;99.90;;;;;;5096497;28;20548;-66
2022/10/29 02:39:43;;;;;;;11.20;6.37;;;17.30;99.90;;;;;;5096470;28;20457;-68
2022/10/29 02:42:10;;;;;;;12.87;6.20;;;17.30;99.90;;;;;;5096309;28;20936;-68
2022/10/29 02:44:37;;;;;;;11.50;5.90;;;17.30;99.90;;;;;;5096087;28;20449;-68
2022/10/29 02:47:04;;;;;;;15.10;6.77;;;17.30;99.90;;;;;;5095993;28;20496;-68
2022/10/29 02:49:31;;;;;;;16.33;6.27;;;17.20;99.90;;;;;;5096097;28;20469;-68
2022/10/29 02:51:59;;;;;;;15.70;6.33;;;17.20;99.90;;;;;;5096258;28;20939;-67
2022/10/29 02:54:26;;;;;;;16.10;6.20;;;17.20;99.90;;;;;;5095995;28;20467;-67
2022/10/29 02:56:53;;;;;;;10.33;6.07;;;17.20;99.90;;;;;;5095527;28;20452;-67
2022/10/29 02:59:19;;;;;;;10.20;5.67;;;17.20;99.90;;;;;;5095829;28;20483;-67
2022/10/29 03:01:46;;;;;;;13.60;6.17;;;17.20;99.90;;;;;;5095762;28;20454;-67
2022/10/29 03:04:13;;;;;;;9.77;6.43;;;17.20;99.90;;;;;;5095768;28;20776;-68
2022/10/29 03:06:40;;;;;;;11.53;6.30;;;17.20;99.90;;;;;;5095181;28;20491;-68
2022/10/29 03:09:08;;;;;;;20.53;6.33;;;17.20;99.90;;;;;;5095462;28;20463;-67
2022/10/29 03:11:35;;;;;;;12.10;6.80;;;17.20;99.90;;;;;;5095855;28;20475;-67
2022/10/29 03:14:02;;;;;;;10.53;6.60;;;17.10;99.90;;;;;;5095491;28;20457;-67
2022/10/29 03:16:29;;;;;;;10.93;6.57;;;17.10;99.90;;;;;;5096139;28;20453;-67
2022/10/29 03:18:55;;;;;;;17.53;6.00;;;17.10;99.90;;;;;;5095738;28;20454;-67
2022/10/29 03:21:22;;;;;;;13.10;6.80;;;17.10;99.90;;;;;;5095558;28;20469;-67
2022/10/29 03:23:49;;;;;;;16.83;6.77;;;17.10;99.90;;;;;;5095462;28;20454;-67
2022/10/29 03:26:17;;;;;;;17.03;7.60;;;17.10;99.90;;;;;;5095057;28;20473;-67
2022/10/29 03:28:44;;;;;;;16.20;7.83;;;17.10;99.90;;;;;;5094808;28;20491;-67
2022/10/29 03:31:11;;;;;;;14.00;7.00;;;17.00;99.90;;;;;;5095069;28;20500;-67
2022/10/29 03:33:37;;;;;;;12.60;6.60;;;17.00;99.90;;;;;;5094747;28;20918;-67
2022/10/29 03:36:06;;;;;;;13.23;6.50;;;17.00;99.90;;;;;;5095409;28;20459;-67
2022/10/29 03:38:33;;;;;;;11.00;6.50;;;17.00;99.90;;;;;;5096351;28;20862;-68
2022/10/29 03:41:01;;;;;;;12.33;7.03;;;17.00;99.90;;;;;;5095123;28;20463;-67
2022/10/29 03:43:29;;;;;;;10.90;7.67;;;17.00;99.90;;;;;;5095305;28;20464;-67
2022/10/29 03:45:57;;;;;;;12.07;7.13;;;17.00;99.90;;;;;;5095603;28;20482;-67
2022/10/29 03:48:25;;;;;;;11.90;6.07;;;17.00;99.90;;;;;;5095899;28;20457;-69
2022/10/29 03:50:56;;;;;;;13.87;6.70;;;16.90;99.90;;;;;;5094857;28;20948;-67
2022/10/29 03:53:23;;;;;;;19.03;7.50;;;16.90;99.90;;;;;;5095276;28;20461;-66
2022/10/29 03:55:51;;;;;;;14.07;7.17;;;16.90;99.90;;;;;;5098473;28;20459;-68
2022/10/29 03:58:18;;;;;;;14.03;6.77;;;16.90;99.90;;;;;;5103149;28;20510;-67
2022/10/29 04:00:53;;;;;;;11.33;5.93;;;16.90;99.90;;;;;;5102899;28;20457;-67
2022/10/29 04:03:20;;;;;;;14.60;6.93;;;16.80;99.90;;;;;;5103133;28;20537;-67
2022/10/29 04:05:47;;;;;;;13.60;7.20;;;16.80;99.90;;;;;;5102996;28;20477;-67
2022/10/29 04:08:13;;;;;;;16.63;7.30;;;16.80;99.90;;;;;;5103384;28;20453;-68
2022/10/29 04:10:44;;;;;;;14.50;6.90;;;16.80;99.90;;;;;;5103255;28;20529;-68
2022/10/29 04:13:11;;;;;;;12.40;7.03;;;16.80;99.90;;;;;;5102770;28;20537;-68
2022/10/29 04:15:38;;;;;;;11.93;7.43;;;16.80;99.90;;;;;;5102296;28;20449;-67
2022/10/29 04:18:06;;;;;;;13.37;7.70;;;16.80;99.90;;;;;;5102928;28;20453;-67
2022/10/29 04:20:33;;;;;;;14.30;7.93;;;16.80;99.90;;;;;;5102516;28;20457;-67
2022/10/29 04:23:00;;;;;;;17.60;7.40;;;16.80;99.90;;;;;;5102586;28;20485;-67
2022/10/29 04:25:27;;;;;;;12.50;6.93;;;16.70;99.90;;;;;;5102285;28;20872;-68
2022/10/29 04:27:54;;;;;;;16.77;7.00;;;16.80;99.90;;;;;;5101691;28;20488;-68
2022/10/29 04:30:21;;;;;;;17.90;6.40;;;16.80;99.90;;;;;;5102103;28;20449;-68
2022/10/29 04:32:48;;;;;;;12.63;6.60;;;16.80;99.90;;;;;;5101808;28;20457;-68
2022/10/29 04:35:17;;;;;;;11.30;6.27;;;16.80;99.90;;;;;;5101867;28;20453;-68
2022/10/29 04:37:43;;;;;;;11.97;7.30;;;16.80;99.90;;;;;;5102293;28;20453;-68
2022/10/29 04:40:11;;;;;;;17.70;6.83;;;16.70;99.90;;;;;;5101844;28;20454;-68
2022/10/29 04:42:38;;;;;;;10.73;5.73;;;16.70;99.90;;;;;;5102050;28;20781;-67
2022/10/29 04:45:06;;;;;;;10.70;6.30;;;16.70;99.90;;;;;;5101652;28;20927;-67
2022/10/29 04:47:33;;;;;;;12.90;6.83;;;16.70;99.90;;;;;;5101861;28;20453;-67
2022/10/29 04:50:00;;;;;;;14.10;6.10;;;16.60;99.90;;;;;;5101300;28;20461;-67
2022/10/29 04:52:28;;;;;;;11.83;6.47;;;16.60;99.90;;;;;;5101165;28;20460;-67
2022/10/29 04:54:55;;;;;;;13.87;6.40;;;16.60;99.90;;;;;;5112571;28;20524;-69
2022/10/29 04:57:22;;;;;;;11.87;6.67;;;16.70;99.90;;;;;;5114615;28;20456;-71
2022/10/29 04:59:49;;;;;;;12.00;7.43;;;16.70;99.90;;;;;;5112845;28;20453;-70
2022/10/29 05:02:15;;;;;;;11.53;6.60;;;16.70;99.90;;;;;;5112961;28;20477;-70
2022/10/29 05:04:42;;;;;;;13.50;6.00;;;16.70;99.90;;;;;;5114152;28;20457;-69
2022/10/29 05:07:09;;;;;;;13.43;7.80;;;16.70;99.90;;;;;;5112258;28;20512;-70
2022/10/29 05:09:37;;;;;;;10.73;7.00;;;16.60;99.90;;;;;;5104976;28;20489;-67
2022/10/29 05:12:05;;;;;;;17.00;6.93;;;16.60;99.90;;;;;;5097211;28;20456;-67
2022/10/29 05:14:31;;;;;;;13.13;6.90;;;16.60;99.90;;;;;;5104267;28;20467;-69
2022/10/29 05:16:58;;;;;;;15.80;7.10;;;16.60;99.90;;;;;;5112253;28;20488;-69
2022/10/29 05:19:25;;;;;;;9.27;6.33;;;16.50;99.90;;;;;;5111681;28;20453;-70
2022/10/29 05:21:52;;;;;;;13.53;6.70;;;16.50;99.90;;;;;;5111680;28;20492;-69
2022/10/29 05:24:19;;;;;;;12.37;6.63;;;16.50;99.90;;;;;;5111546;28;20537;-70
2022/10/29 05:26:47;;;;;;;13.43;7.40;;;16.50;99.90;;;;;;5111133;28;20477;-69
2022/10/29 05:29:14;;;;;;;14.60;7.07;;;16.50;99.90;;;;;;5110747;28;20553;-70
2022/10/29 05:31:40;;;;;;;14.17;7.70;;;16.50;99.90;;;;;;5112728;28;20473;-69
2022/10/29 05:34:07;;;;;;;10.13;6.93;;;16.50;99.90;;;;;;5111765;28;20464;-70
2022/10/29 05:36:34;;;;;;;17.40;7.00;;;16.50;99.90;;;;;;5111955;28;20496;-69
2022/10/29 05:39:01;;;;;;;15.80;7.60;;;16.40;99.90;;;;;;5112433;28;20461;-70
2022/10/29 05:41:28;;;;;;;14.47;7.50;;;16.40;99.90;;;;;;5112317;28;20484;-70
2022/10/29 05:43:56;;;;;;;13.27;6.73;;;16.40;99.90;;;;;;5111524;28;20509;-70
2022/10/29 05:46:23;;;;;;;11.33;7.30;;;16.40;99.90;;;;;;5111315;28;20549;-70
2022/10/29 05:48:50;;;;;;;15.87;8.03;;;16.30;99.90;;;;;;5112035;28;20464;-70
2022/10/29 05:51:16;;;;;;;18.17;8.07;;;16.30;99.90;;;;;;5110832;28;20510;-69
2022/10/29 05:53:43;;;;;;;9.93;7.20;;;16.30;99.90;;;;;;5111391;28;20489;-70
2022/10/29 05:56:10;;;;;;;14.57;7.30;;;16.30;99.90;;;;;;5112069;28;20556;-69
2022/10/29 05:58:37;;;;;;;10.23;6.83;;;16.30;99.90;;;;;;5111588;28;20460;-70
2022/10/29 06:01:08;;;;;;;12.93;7.03;;;16.20;99.90;;;;;;5112066;28;20473;-69
2022/10/29 06:03:35;;;;;;;13.90;7.70;;;16.20;99.90;;;;;;5110324;28;20493;-69
2022/10/29 06:06:02;;;;;;;19.13;8.93;;;16.10;99.90;;;;;;5111219;28;20523;-69
2022/10/29 06:08:29;;;;;;;10.00;6.67;;;16.20;99.90;;;;;;5111360;28;20526;-69
2022/10/29 06:10:56;;;;;;;11.80;6.67;;;16.10;99.90;;;;;;5108808;28;20517;-70
2022/10/29 06:13:23;;;;;;;11.47;6.93;;;16.10;99.90;;;;;;5108703;28;20446;-68
2022/10/29 06:15:50;;;;;;;15.73;7.27;;;16.10;99.90;;;;;;5108907;28;20457;-69
2022/10/29 06:18:19;;;;;;;14.90;7.10;;;16.10;99.90;;;;;;5108566;28;20544;-70
2022/10/29 06:20:45;;;;;;;13.50;6.80;;;16.10;99.90;;;;;;5111987;28;20518;-71
2022/10/29 06:23:12;;;;;;;19.07;6.93;;;16.00;99.90;;;;;;5112044;28;20631;-72
2022/10/29 06:25:39;;;;;;;13.13;7.43;;;16.10;99.90;;;;;;5109530;28;20473;-69
2022/10/29 06:28:08;;;;;;;10.83;7.13;;;16.10;99.90;;;;;;5107489;28;20504;-69
2022/10/29 06:30:36;;;;;;;13.83;7.00;;;16.10;99.90;;;;;;5107961;28;20531;-69
2022/10/29 06:33:03;;;;;;;17.40;7.53;;;16.10;99.90;;;;;;5107964;28;20521;-69
2022/10/29 06:35:31;;;;;;;13.60;7.60;;;16.10;99.90;;;;;;5108601;28;20488;-70
2022/10/29 06:37:59;;;;;;;15.57;8.00;;;16.20;99.90;;;;;;5108966;28;20477;-70
2022/10/29 06:40:25;;;;;;;15.53;7.50;;;16.10;99.90;;;;;;5109403;28;20476;-69
2022/10/29 06:42:59;;;;;;;16.27;6.93;;;16.20;99.90;;;;;;5107944;28;20548;-70
2022/10/29 06:45:26;;;;;;;12.30;6.23;;;16.20;99.90;;;;;;5109121;28;20460;-69
2022/10/29 06:47:53;;;;;;;13.37;7.50;;;16.20;99.90;;;;;;5111044;28;20473;-69
2022/10/29 06:50:20;;;;;;;14.27;7.77;;;16.20;99.90;;;;;;5111597;28;20525;-69
2022/10/29 06:52:55;;;;;;;22.07;7.83;;;16.30;99.90;;;;;;5111115;28;20525;-70
2022/10/29 06:55:22;;;;;;;11.53;6.87;;;16.30;99.90;;;;;;5111409;28;20497;-70
2022/10/29 06:57:56;;;;;;;13.73;7.00;;;16.30;99.90;;;;;;5110776;28;20477;-70
2022/10/29 07:00:23;;;;;;;17.67;7.53;;;16.40;99.90;;;;;;5110749;28;20465;-69
2022/10/29 07:02:50;;;;;;;17.23;7.30;;;16.30;99.90;;;;;;5110171;28;20454;-70
2022/10/29 07:05:17;;;;;;;16.00;7.00;;;16.40;99.90;;;;;;5109425;28;20463;-71
2022/10/29 07:07:44;;;;;;;16.27;7.87;;;16.40;99.90;;;;;;5108879;28;20477;-68
2022/10/29 07:10:12;;;;;;;19.73;8.63;;;16.40;99.90;;;;;;5107907;28;20552;-70
2022/10/29 07:12:40;;;;;;;14.77;7.50;;;16.40;99.90;;;;;;5108130;28;20453;-69
2022/10/29 07:15:08;;;;;;;15.07;8.13;;;16.50;99.90;;;;;;5108330;28;20453;-69
2022/10/29 07:17:35;;;;;;;17.07;7.80;;;16.50;99.90;;;;;;5107939;28;20477;-70
2022/10/29 07:20:02;;;;;;;14.30;7.17;;;16.50;99.90;;;;;;5107597;28;20456;-70
2022/10/29 07:22:29;;;;;;;13.50;6.70;;;16.50;99.90;;;;;;5109232;28;20492;-69
2022/10/29 07:24:56;;;;;;;16.33;8.40;;;16.50;99.90;;;;;;5109890;28;20520;-70
2022/10/29 07:27:24;;;;;;;11.20;7.47;;;16.60;99.90;;;;;;5108850;28;20541;-70
2022/10/29 07:29:51;;;;;;;18.90;7.37;;;16.60;99.90;;;;;;5108562;28;20458;-70
2022/10/29 07:32:18;;;;;;;11.27;6.80;;;16.60;99.90;;;;;;5108436;28;20453;-70
2022/10/29 07:34:45;;;;;;;18.20;7.10;;;16.60;99.90;;;;;;5108778;28;21008;-69
2022/10/29 07:37:12;;;;;;;16.77;7.77;;;16.70;99.90;;;;;;5109436;28;20457;-69
2022/10/29 07:39:38;;;;;;;15.80;6.83;;;16.70;99.90;;;;;;5108569;28;20774;-70
2022/10/29 07:42:05;;;;;;;15.67;7.47;;;16.80;99.90;;;;;;5109180;28;20453;-70
2022/10/29 07:44:33;;;;;;;13.57;7.80;;;16.90;99.90;;;;;;5108385;28;20801;-70
2022/10/29 07:47:01;;;;;;;14.30;7.80;;;16.90;99.90;;;;;;5108890;28;20516;-69
2022/10/29 07:49:29;;;;;;;19.70;7.93;;;16.90;99.90;;;;;;5108588;28;20453;-70
2022/10/29 07:51:55;;;;;;;12.83;6.63;;;17.00;99.90;;;;;;5108043;28;20468;-69
2022/10/29 07:54:22;;;;;;;16.60;7.77;;;17.10;99.90;;;;;;5108055;28;20496;-71
2022/10/29 07:56:51;;;;;;;17.57;8.07;;;17.10;99.90;;;;;;5108004;28;20509;-70
2022/10/29 07:59:19;;;;;;;11.40;7.40;;;17.20;99.90;;;;;;5107034;28;20473;-70
2022/10/29 08:01:47;;;;;;;12.27;7.00;;;17.20;99.90;;;;;;5107074;28;20457;-69
2022/10/29 08:04:14;;;;;;;15.53;8.00;;;17.20;99.90;;;;;;5107763;28;20541;-70
2022/10/29 08:06:41;;;;;;;14.57;7.33;;;17.20;99.90;;;;;;5105260;28;20505;-70
2022/10/29 08:09:10;;;;;;;11.80;7.00;;;17.20;99.90;;;;;;5106946;28;20449;-69
2022/10/29 08:11:37;;;;;;;11.57;7.30;;;17.20;99.90;;;;;;5107262;28;20465;-69
2022/10/29 08:14:04;;;;;;;15.40;7.67;;;17.30;99.90;;;;;;5109715;28;20485;-69
2022/10/29 08:16:30;;;;;;;18.07;7.30;;;17.30;99.90;;;;;;5108226;28;20532;-69
2022/10/29 08:18:59;;;;;;;17.60;7.27;;;17.30;99.90;;;;;;5108681;28;20488;-69
2022/10/29 08:21:25;;;;;;;16.20;7.97;;;17.30;99.90;;;;;;5108544;28;20460;-70
2022/10/29 08:23:52;;;;;;;15.47;7.40;;;17.30;99.90;;;;;;5109704;28;20472;-70
2022/10/29 08:26:20;;;;;;;12.90;6.80;;;17.30;99.90;;;;;;5110465;28;20495;-70
2022/10/29 08:28:47;;;;;;;18.23;8.70;;;17.40;99.90;;;;;;5110106;28;20500;-69
2022/10/29 08:31:14;;;;;;;13.83;6.83;;;17.40;99.90;;;;;;5109178;28;20488;-69
2022/10/29 08:33:41;;;;;;;13.90;7.47;;;17.40;99.90;;;;;;5108177;28;20484;-69
2022/10/29 08:36:11;;;;;;;14.33;7.67;;;17.50;99.90;;;;;;5109697;28;20467;-69
2022/10/29 08:38:37;;;;;;;11.30;7.40;;;17.50;99.90;;;;;;5108924;28;20464;-69
2022/10/29 08:41:21;;;;;;;12.27;7.20;;;17.50;99.90;;;;;;5108323;28;20552;-69
